sensor_id;sensor_type;location;lat;lon;timestamp;P1;durP1;ratioP1;P2;durP2;ratioP2
21060;SDS011;10689;50.836;3.266;2022-08-19T00:01:24;16.67;;;11.35;;
21060;SDS011;10689;50.836;3.266;2022-08-19T00:03:52;19.20;;;11.45;;
21060;SDS011;10689;50.836;3.266;2022-08-19T00:06:17;16.75;;;12.30;;
21060;SDS011;10689;50.836;3.266;2022-08-19T00:08:43;15.18;;;10.85;;
21060;SDS011;10689;50.836;3.266;2022-08-19T00:11:09;14.98;;;10.82;;
21060;SDS011;10689;50.836;3.266;2022-08-19T00:13:35;14.95;;;11.00;;
21060;SDS011;10689;50.836;3.266;2022-08-19T00:16:03;14.52;;;11.02;;
21060;SDS011;10689;50.836;3.266;2022-08-19T00:18:30;12.88;;;10.70;;
21060;SDS011;10689;50.836;3.266;2022-08-19T00:20:58;14.00;;;11.00;;
21060;SDS011;10689;50.836;3.266;2022-08-19T00:23:25;14.45;;;10.75;;
21060;SDS011;10689;50.836;3.266;2022-08-19T00:25:51;14.32;;;10.27;;
21060;SDS011;10689;50.836;3.266;2022-08-19T00:28:17;18.48;;;11.27;;
21060;SDS011;10689;50.836;3.266;2022-08-19T00:30:44;19.48;;;11.60;;
21060;SDS011;10689;50.836;3.266;2022-08-19T00:33:10;15.38;;;10.18;;
21060;SDS011;10689;50.836;3.266;2022-08-19T00:35:36;12.80;;;9.95;;
21060;SDS011;10689;50.836;3.266;2022-08-19T00:38:03;14.18;;;11.02;;
21060;SDS011;10689;50.836;3.266;2022-08-19T00:40:30;17.13;;;11.02;;
21060;SDS011;10689;50.836;3.266;2022-08-19T00:42:56;16.77;;;12.55;;
21060;SDS011;10689;50.836;3.266;2022-08-19T00:45:23;14.40;;;11.25;;
21060;SDS011;10689;50.836;3.266;2022-08-19T00:47:50;17.25;;;11.18;;
21060;SDS011;10689;50.836;3.266;2022-08-19T00:50:17;14.48;;;10.18;;
21060;SDS011;10689;50.836;3.266;2022-08-19T00:52:46;14.48;;;9.80;;
21060;SDS011;10689;50.836;3.266;2022-08-19T00:55:23;19.92;;;11.07;;
21060;SDS011;10689;50.836;3.266;2022-08-19T00:58:00;14.95;;;11.00;;
21060;SDS011;10689;50.836;3.266;2022-08-19T01:00:29;23.52;;;10.98;;
21060;SDS011;10689;50.836;3.266;2022-08-19T01:02:56;12.98;;;9.90;;
21060;SDS011;10689;50.836;3.266;2022-08-19T01:05:26;13.95;;;10.13;;
21060;SDS011;10689;50.836;3.266;2022-08-19T01:07:54;13.73;;;10.68;;
21060;SDS011;10689;50.836;3.266;2022-08-19T01:10:24;19.80;;;10.88;;
21060;SDS011;10689;50.836;3.266;2022-08-19T01:12:52;13.60;;;10.52;;
21060;SDS011;10689;50.836;3.266;2022-08-19T01:15:25;16.15;;;10.90;;
21060;SDS011;10689;50.836;3.266;2022-08-19T01:17:55;15.00;;;10.70;;
21060;SDS011;10689;50.836;3.266;2022-08-19T01:20:24;14.65;;;10.98;;
21060;SDS011;10689;50.836;3.266;2022-08-19T01:22:52;16.75;;;10.60;;
21060;SDS011;10689;50.836;3.266;2022-08-19T01:25:21;14.30;;;10.40;;
21060;SDS011;10689;50.836;3.266;2022-08-19T01:27:51;11.90;;;9.85;;
21060;SDS011;10689;50.836;3.266;2022-08-19T01:30:22;17.33;;;11.18;;
21060;SDS011;10689;50.836;3.266;2022-08-19T01:32:52;21.15;;;11.77;;
21060;SDS011;10689;50.836;3.266;2022-08-19T01:35:19;14.98;;;10.93;;
21060;SDS011;10689;50.836;3.266;2022-08-19T01:37:47;13.43;;;10.10;;
21060;SDS011;10689;50.836;3.266;2022-08-19T01:40:15;12.10;;;9.27;;
21060;SDS011;10689;50.836;3.266;2022-08-19T01:42:41;14.40;;;9.38;;
21060;SDS011;10689;50.836;3.266;2022-08-19T01:45:07;13.30;;;9.80;;
21060;SDS011;10689;50.836;3.266;2022-08-19T01:47:34;10.98;;;8.80;;
21060;SDS011;10689;50.836;3.266;2022-08-19T01:50:03;13.23;;;8.60;;
21060;SDS011;10689;50.836;3.266;2022-08-19T01:52:30;14.70;;;8.82;;
21060;SDS011;10689;50.836;3.266;2022-08-19T01:54:55;12.63;;;8.90;;
21060;SDS011;10689;50.836;3.266;2022-08-19T01:57:21;16.30;;;9.85;;
21060;SDS011;10689;50.836;3.266;2022-08-19T01:59:47;10.18;;;8.05;;
21060;SDS011;10689;50.836;3.266;2022-08-19T02:02:12;11.75;;;8.63;;
21060;SDS011;10689;50.836;3.266;2022-08-19T02:04:38;12.80;;;8.57;;
21060;SDS011;10689;50.836;3.266;2022-08-19T02:07:04;13.05;;;8.57;;
21060;SDS011;10689;50.836;3.266;2022-08-19T02:09:31;12.70;;;8.13;;
21060;SDS011;10689;50.836;3.266;2022-08-19T02:11:57;12.18;;;7.55;;
21060;SDS011;10689;50.836;3.266;2022-08-19T02:14:23;13.00;;;8.32;;
21060;SDS011;10689;50.836;3.266;2022-08-19T02:16:49;15.32;;;7.93;;
21060;SDS011;10689;50.836;3.266;2022-08-19T02:19:14;11.93;;;7.97;;
21060;SDS011;10689;50.836;3.266;2022-08-19T02:21:40;12.40;;;8.10;;
21060;SDS011;10689;50.836;3.266;2022-08-19T02:24:06;13.18;;;8.93;;
21060;SDS011;10689;50.836;3.266;2022-08-19T02:26:32;10.35;;;8.13;;
21060;SDS011;10689;50.836;3.266;2022-08-19T02:28:58;12.63;;;7.95;;
21060;SDS011;10689;50.836;3.266;2022-08-19T02:31:26;12.60;;;8.02;;
21060;SDS011;10689;50.836;3.266;2022-08-19T02:33:53;12.77;;;8.63;;
21060;SDS011;10689;50.836;3.266;2022-08-19T02:36:20;11.60;;;8.32;;
21060;SDS011;10689;50.836;3.266;2022-08-19T02:38:47;11.68;;;7.68;;
21060;SDS011;10689;50.836;3.266;2022-08-19T02:41:17;11.60;;;8.40;;
21060;SDS011;10689;50.836;3.266;2022-08-19T02:43:45;10.70;;;6.85;;
21060;SDS011;10689;50.836;3.266;2022-08-19T02:46:24;10.80;;;7.25;;
21060;SDS011;10689;50.836;3.266;2022-08-19T02:48:52;11.23;;;7.13;;
21060;SDS011;10689;50.836;3.266;2022-08-19T02:51:20;13.57;;;7.30;;
21060;SDS011;10689;50.836;3.266;2022-08-19T02:53:49;10.30;;;7.15;;
21060;SDS011;10689;50.836;3.266;2022-08-19T02:56:15;8.25;;;6.55;;
21060;SDS011;10689;50.836;3.266;2022-08-19T02:58:41;11.25;;;6.78;;
21060;SDS011;10689;50.836;3.266;2022-08-19T03:01:08;16.58;;;7.38;;
21060;SDS011;10689;50.836;3.266;2022-08-19T03:03:35;10.45;;;6.88;;
21060;SDS011;10689;50.836;3.266;2022-08-19T03:08:39;11.60;;;6.53;;
21060;SDS011;10689;50.836;3.266;2022-08-19T03:11:06;9.32;;;6.05;;
21060;SDS011;10689;50.836;3.266;2022-08-19T03:13:37;11.57;;;6.40;;
21060;SDS011;10689;50.836;3.266;2022-08-19T03:16:04;7.70;;;5.57;;
21060;SDS011;10689;50.836;3.266;2022-08-19T03:18:32;10.27;;;6.88;;
21060;SDS011;10689;50.836;3.266;2022-08-19T03:20:57;8.75;;;6.13;;
21060;SDS011;10689;50.836;3.266;2022-08-19T03:23:23;7.60;;;6.07;;
21060;SDS011;10689;50.836;3.266;2022-08-19T03:25:50;9.10;;;5.93;;
21060;SDS011;10689;50.836;3.266;2022-08-19T03:28:19;10.05;;;5.97;;
21060;SDS011;10689;50.836;3.266;2022-08-19T03:30:55;7.40;;;5.90;;
21060;SDS011;10689;50.836;3.266;2022-08-19T03:33:27;8.48;;;5.93;;
21060;SDS011;10689;50.836;3.266;2022-08-19T03:38:34;7.70;;;5.50;;
21060;SDS011;10689;50.836;3.266;2022-08-19T03:41:03;8.85;;;6.35;;
21060;SDS011;10689;50.836;3.266;2022-08-19T03:43:35;8.30;;;5.63;;
21060;SDS011;10689;50.836;3.266;2022-08-19T03:46:06;8.98;;;6.25;;
21060;SDS011;10689;50.836;3.266;2022-08-19T03:48:34;7.43;;;5.38;;
21060;SDS011;10689;50.836;3.266;2022-08-19T03:51:00;10.13;;;5.20;;
21060;SDS011;10689;50.836;3.266;2022-08-19T03:53:27;7.18;;;5.43;;
21060;SDS011;10689;50.836;3.266;2022-08-19T03:55:55;7.80;;;5.70;;
21060;SDS011;10689;50.836;3.266;2022-08-19T03:58:23;9.40;;;5.90;;
21060;SDS011;10689;50.836;3.266;2022-08-19T04:00:48;8.35;;;5.68;;
21060;SDS011;10689;50.836;3.266;2022-08-19T04:03:14;10.93;;;6.20;;
21060;SDS011;10689;50.836;3.266;2022-08-19T04:05:40;10.60;;;5.78;;
21060;SDS011;10689;50.836;3.266;2022-08-19T04:08:06;10.90;;;6.82;;
21060;SDS011;10689;50.836;3.266;2022-08-19T04:10:35;13.07;;;6.38;;
21060;SDS011;10689;50.836;3.266;2022-08-19T04:13:02;8.25;;;6.07;;
21060;SDS011;10689;50.836;3.266;2022-08-19T04:15:30;13.98;;;7.03;;
21060;SDS011;10689;50.836;3.266;2022-08-19T04:18:00;12.02;;;7.15;;
21060;SDS011;10689;50.836;3.266;2022-08-19T04:20:26;10.82;;;6.95;;
21060;SDS011;10689;50.836;3.266;2022-08-19T04:22:52;8.85;;;6.75;;
21060;SDS011;10689;50.836;3.266;2022-08-19T04:25:17;10.68;;;6.18;;
21060;SDS011;10689;50.836;3.266;2022-08-19T04:27:43;9.93;;;6.85;;
21060;SDS011;10689;50.836;3.266;2022-08-19T04:30:12;10.65;;;6.05;;
21060;SDS011;10689;50.836;3.266;2022-08-19T04:32:38;11.63;;;6.25;;
21060;SDS011;10689;50.836;3.266;2022-08-19T04:35:04;11.32;;;6.40;;
21060;SDS011;10689;50.836;3.266;2022-08-19T04:37:30;9.63;;;6.65;;
21060;SDS011;10689;50.836;3.266;2022-08-19T04:39:58;10.38;;;6.85;;
21060;SDS011;10689;50.836;3.266;2022-08-19T04:42:43;9.88;;;6.97;;
21060;SDS011;10689;50.836;3.266;2022-08-19T04:45:13;12.30;;;7.00;;
21060;SDS011;10689;50.836;3.266;2022-08-19T04:47:40;10.65;;;5.97;;
21060;SDS011;10689;50.836;3.266;2022-08-19T04:50:07;11.05;;;6.78;;
21060;SDS011;10689;50.836;3.266;2022-08-19T04:52:35;9.80;;;6.90;;
21060;SDS011;10689;50.836;3.266;2022-08-19T04:55:01;10.50;;;7.20;;
21060;SDS011;10689;50.836;3.266;2022-08-19T04:57:28;18.15;;;7.70;;
21060;SDS011;10689;50.836;3.266;2022-08-19T04:59:54;12.10;;;7.85;;
21060;SDS011;10689;50.836;3.266;2022-08-19T05:02:20;13.38;;;7.97;;
21060;SDS011;10689;50.836;3.266;2022-08-19T05:04:48;12.23;;;6.72;;
21060;SDS011;10689;50.836;3.266;2022-08-19T05:07:14;11.45;;;7.13;;
21060;SDS011;10689;50.836;3.266;2022-08-19T05:09:40;16.13;;;9.23;;
21060;SDS011;10689;50.836;3.266;2022-08-19T05:12:06;16.75;;;8.43;;
21060;SDS011;10689;50.836;3.266;2022-08-19T05:14:32;12.77;;;8.25;;
21060;SDS011;10689;50.836;3.266;2022-08-19T05:16:57;9.57;;;6.97;;
21060;SDS011;10689;50.836;3.266;2022-08-19T05:19:23;12.63;;;7.57;;
21060;SDS011;10689;50.836;3.266;2022-08-19T05:22:07;10.68;;;6.97;;
21060;SDS011;10689;50.836;3.266;2022-08-19T05:24:51;10.82;;;7.07;;
21060;SDS011;10689;50.836;3.266;2022-08-19T05:27:17;13.05;;;7.85;;
21060;SDS011;10689;50.836;3.266;2022-08-19T05:29:42;14.57;;;8.23;;
21060;SDS011;10689;50.836;3.266;2022-08-19T05:32:08;12.02;;;7.20;;
21060;SDS011;10689;50.836;3.266;2022-08-19T05:34:34;10.27;;;7.57;;
21060;SDS011;10689;50.836;3.266;2022-08-19T05:37:00;12.15;;;7.32;;
21060;SDS011;10689;50.836;3.266;2022-08-19T05:39:28;10.93;;;7.40;;
21060;SDS011;10689;50.836;3.266;2022-08-19T05:41:56;9.43;;;7.00;;
21060;SDS011;10689;50.836;3.266;2022-08-19T05:44:25;11.60;;;7.15;;
21060;SDS011;10689;50.836;3.266;2022-08-19T05:46:56;13.70;;;8.20;;
21060;SDS011;10689;50.836;3.266;2022-08-19T05:49:25;10.15;;;6.63;;
21060;SDS011;10689;50.836;3.266;2022-08-19T05:51:52;9.65;;;6.80;;
21060;SDS011;10689;50.836;3.266;2022-08-19T05:54:19;14.27;;;7.93;;
21060;SDS011;10689;50.836;3.266;2022-08-19T05:56:45;9.00;;;7.50;;
21060;SDS011;10689;50.836;3.266;2022-08-19T05:59:13;10.85;;;7.30;;
21060;SDS011;10689;50.836;3.266;2022-08-19T06:01:41;9.27;;;7.20;;
21060;SDS011;10689;50.836;3.266;2022-08-19T06:04:10;8.85;;;6.93;;
21060;SDS011;10689;50.836;3.266;2022-08-19T06:06:38;9.75;;;7.22;;
21060;SDS011;10689;50.836;3.266;2022-08-19T06:09:05;10.60;;;6.80;;
21060;SDS011;10689;50.836;3.266;2022-08-19T06:11:42;7.57;;;6.55;;
21060;SDS011;10689;50.836;3.266;2022-08-19T06:14:14;6.80;;;5.72;;
21060;SDS011;10689;50.836;3.266;2022-08-19T06:16:43;8.68;;;5.53;;
21060;SDS011;10689;50.836;3.266;2022-08-19T06:19:12;7.68;;;5.13;;
21060;SDS011;10689;50.836;3.266;2022-08-19T06:21:41;7.50;;;5.40;;
21060;SDS011;10689;50.836;3.266;2022-08-19T06:24:09;7.22;;;5.05;;
21060;SDS011;10689;50.836;3.266;2022-08-19T06:26:39;7.35;;;5.75;;
21060;SDS011;10689;50.836;3.266;2022-08-19T06:29:07;5.53;;;4.82;;
21060;SDS011;10689;50.836;3.266;2022-08-19T06:31:35;6.00;;;4.78;;
21060;SDS011;10689;50.836;3.266;2022-08-19T06:34:02;5.50;;;4.63;;
21060;SDS011;10689;50.836;3.266;2022-08-19T06:36:31;6.10;;;4.35;;
21060;SDS011;10689;50.836;3.266;2022-08-19T06:39:09;5.97;;;4.70;;
21060;SDS011;10689;50.836;3.266;2022-08-19T06:41:42;8.48;;;5.68;;
21060;SDS011;10689;50.836;3.266;2022-08-19T06:44:09;9.13;;;4.80;;
21060;SDS011;10689;50.836;3.266;2022-08-19T06:46:36;7.63;;;5.13;;
21060;SDS011;10689;50.836;3.266;2022-08-19T06:49:03;5.50;;;4.05;;
21060;SDS011;10689;50.836;3.266;2022-08-19T06:51:29;7.32;;;4.55;;
21060;SDS011;10689;50.836;3.266;2022-08-19T06:53:56;5.93;;;4.07;;
21060;SDS011;10689;50.836;3.266;2022-08-19T06:56:23;5.15;;;4.10;;
21060;SDS011;10689;50.836;3.266;2022-08-19T06:59:08;6.55;;;4.78;;
21060;SDS011;10689;50.836;3.266;2022-08-19T07:01:37;6.68;;;4.05;;
21060;SDS011;10689;50.836;3.266;2022-08-19T07:04:07;5.72;;;3.45;;
21060;SDS011;10689;50.836;3.266;2022-08-19T07:06:33;6.00;;;4.20;;
21060;SDS011;10689;50.836;3.266;2022-08-19T07:09:00;6.55;;;3.92;;
21060;SDS011;10689;50.836;3.266;2022-08-19T07:11:28;4.63;;;3.78;;
21060;SDS011;10689;50.836;3.266;2022-08-19T07:13:54;6.35;;;4.20;;
21060;SDS011;10689;50.836;3.266;2022-08-19T07:16:20;5.22;;;3.35;;
21060;SDS011;10689;50.836;3.266;2022-08-19T07:18:47;6.75;;;4.25;;
21060;SDS011;10689;50.836;3.266;2022-08-19T07:21:15;5.43;;;3.65;;
21060;SDS011;10689;50.836;3.266;2022-08-19T07:23:43;5.82;;;4.78;;
21060;SDS011;10689;50.836;3.266;2022-08-19T07:26:20;6.40;;;3.80;;
21060;SDS011;10689;50.836;3.266;2022-08-19T07:28:47;4.97;;;4.40;;
21060;SDS011;10689;50.836;3.266;2022-08-19T07:31:14;4.35;;;3.95;;
21060;SDS011;10689;50.836;3.266;2022-08-19T07:33:43;5.93;;;4.25;;
21060;SDS011;10689;50.836;3.266;2022-08-19T07:36:11;5.22;;;3.70;;
21060;SDS011;10689;50.836;3.266;2022-08-19T07:38:40;4.38;;;3.50;;
21060;SDS011;10689;50.836;3.266;2022-08-19T07:41:07;5.75;;;3.78;;
21060;SDS011;10689;50.836;3.266;2022-08-19T07:43:37;4.82;;;4.00;;
21060;SDS011;10689;50.836;3.266;2022-08-19T07:46:03;5.00;;;3.83;;
21060;SDS011;10689;50.836;3.266;2022-08-19T07:48:29;4.88;;;3.85;;
21060;SDS011;10689;50.836;3.266;2022-08-19T07:50:56;5.43;;;3.67;;
21060;SDS011;10689;50.836;3.266;2022-08-19T07:53:26;5.97;;;3.28;;
21060;SDS011;10689;50.836;3.266;2022-08-19T07:55:53;5.72;;;3.60;;
21060;SDS011;10689;50.836;3.266;2022-08-19T07:58:28;6.00;;;3.53;;
21060;SDS011;10689;50.836;3.266;2022-08-19T08:00:54;3.85;;;3.28;;
21060;SDS011;10689;50.836;3.266;2022-08-19T08:03:20;5.90;;;3.03;;
21060;SDS011;10689;50.836;3.266;2022-08-19T08:06:07;4.38;;;3.30;;
21060;SDS011;10689;50.836;3.266;2022-08-19T08:08:51;5.28;;;2.65;;
21060;SDS011;10689;50.836;3.266;2022-08-19T08:11:35;3.05;;;2.53;;
21060;SDS011;10689;50.836;3.266;2022-08-19T08:14:01;4.38;;;2.40;;
21060;SDS011;10689;50.836;3.266;2022-08-19T08:16:27;4.38;;;2.60;;
21060;SDS011;10689;50.836;3.266;2022-08-19T08:18:56;2.78;;;2.28;;
21060;SDS011;10689;50.836;3.266;2022-08-19T08:21:22;2.42;;;2.10;;
21060;SDS011;10689;50.836;3.266;2022-08-19T08:23:48;2.47;;;2.22;;
21060;SDS011;10689;50.836;3.266;2022-08-19T08:26:13;7.65;;;2.50;;
21060;SDS011;10689;50.836;3.266;2022-08-19T08:28:40;3.10;;;1.92;;
21060;SDS011;10689;50.836;3.266;2022-08-19T08:31:06;1.70;;;1.58;;
21060;SDS011;10689;50.836;3.266;2022-08-19T08:33:32;4.00;;;1.70;;
21060;SDS011;10689;50.836;3.266;2022-08-19T08:35:57;4.13;;;1.60;;
21060;SDS011;10689;50.836;3.266;2022-08-19T08:38:23;2.35;;;1.70;;
21060;SDS011;10689;50.836;3.266;2022-08-19T08:40:53;1.45;;;1.35;;
21060;SDS011;10689;50.836;3.266;2022-08-19T08:43:34;2.30;;;1.63;;
21060;SDS011;10689;50.836;3.266;2022-08-19T08:46:08;4.35;;;1.63;;
21060;SDS011;10689;50.836;3.266;2022-08-19T08:48:47;2.17;;;1.95;;
21060;SDS011;10689;50.836;3.266;2022-08-19T08:51:25;1.83;;;1.50;;
21060;SDS011;10689;50.836;3.266;2022-08-19T08:53:54;2.70;;;1.92;;
21060;SDS011;10689;50.836;3.266;2022-08-19T08:56:24;2.45;;;1.70;;
21060;SDS011;10689;50.836;3.266;2022-08-19T08:58:52;1.73;;;1.50;;
21060;SDS011;10689;50.836;3.266;2022-08-19T09:01:25;2.45;;;1.95;;
21060;SDS011;10689;50.836;3.266;2022-08-19T09:03:51;1.83;;;1.52;;
21060;SDS011;10689;50.836;3.266;2022-08-19T09:06:21;3.05;;;1.75;;
21060;SDS011;10689;50.836;3.266;2022-08-19T09:09:16;1.70;;;1.50;;
21060;SDS011;10689;50.836;3.266;2022-08-19T09:14:48;1.33;;;1.20;;
21060;SDS011;10689;50.836;3.266;2022-08-19T09:17:31;1.58;;;0.80;;
21060;SDS011;10689;50.836;3.266;2022-08-19T09:22:42;0.73;;;0.65;;
21060;SDS011;10689;50.836;3.266;2022-08-19T09:25:09;1.00;;;0.75;;
21060;SDS011;10689;50.836;3.266;2022-08-19T09:27:38;0.93;;;0.90;;
21060;SDS011;10689;50.836;3.266;2022-08-19T09:30:06;0.95;;;0.55;;
21060;SDS011;10689;50.836;3.266;2022-08-19T09:32:33;1.98;;;1.33;;
21060;SDS011;10689;50.836;3.266;2022-08-19T09:34:59;0.75;;;0.68;;
21060;SDS011;10689;50.836;3.266;2022-08-19T09:37:26;1.65;;;0.88;;
21060;SDS011;10689;50.836;3.266;2022-08-19T09:39:52;3.22;;;1.63;;
21060;SDS011;10689;50.836;3.266;2022-08-19T09:42:18;0.82;;;0.80;;
21060;SDS011;10689;50.836;3.266;2022-08-19T09:44:45;1.65;;;0.80;;
21060;SDS011;10689;50.836;3.266;2022-08-19T09:47:12;2.60;;;0.77;;
21060;SDS011;10689;50.836;3.266;2022-08-19T09:49:38;1.20;;;0.77;;
21060;SDS011;10689;50.836;3.266;2022-08-19T09:52:05;0.88;;;0.55;;
21060;SDS011;10689;50.836;3.266;2022-08-19T09:54:34;0.80;;;0.80;;
21060;SDS011;10689;50.836;3.266;2022-08-19T09:57:00;0.70;;;0.60;;
21060;SDS011;10689;50.836;3.266;2022-08-19T09:59:26;0.70;;;0.68;;
21060;SDS011;10689;50.836;3.266;2022-08-19T10:01:52;0.85;;;0.77;;
21060;SDS011;10689;50.836;3.266;2022-08-19T10:04:18;0.77;;;0.68;;
21060;SDS011;10689;50.836;3.266;2022-08-19T10:06:46;1.17;;;0.70;;
21060;SDS011;10689;50.836;3.266;2022-08-19T10:09:13;1.73;;;0.82;;
21060;SDS011;10689;50.836;3.266;2022-08-19T10:11:41;2.20;;;1.05;;
21060;SDS011;10689;50.836;3.266;2022-08-19T10:14:11;3.03;;;1.10;;
21060;SDS011;10689;50.836;3.266;2022-08-19T10:16:36;0.70;;;0.70;;
21060;SDS011;10689;50.836;3.266;2022-08-19T10:19:04;1.05;;;0.70;;
21060;SDS011;10689;50.836;3.266;2022-08-19T10:21:32;1.50;;;0.73;;
21060;SDS011;10689;50.836;3.266;2022-08-19T10:24:00;0.68;;;0.57;;
21060;SDS011;10689;50.836;3.266;2022-08-19T10:26:33;0.47;;;0.47;;
21060;SDS011;10689;50.836;3.266;2022-08-19T10:29:02;1.65;;;0.63;;
21060;SDS011;10689;50.836;3.266;2022-08-19T10:31:30;1.15;;;0.98;;
21060;SDS011;10689;50.836;3.266;2022-08-19T10:33:57;1.10;;;0.60;;
21060;SDS011;10689;50.836;3.266;2022-08-19T10:36:24;0.57;;;0.55;;
21060;SDS011;10689;50.836;3.266;2022-08-19T10:38:56;1.10;;;0.68;;
21060;SDS011;10689;50.836;3.266;2022-08-19T10:41:25;0.85;;;0.60;;
21060;SDS011;10689;50.836;3.266;2022-08-19T10:43:55;0.70;;;0.60;;
21060;SDS011;10689;50.836;3.266;2022-08-19T10:46:28;0.73;;;0.57;;
21060;SDS011;10689;50.836;3.266;2022-08-19T10:48:57;1.20;;;0.93;;
21060;SDS011;10689;50.836;3.266;2022-08-19T10:51:28;1.23;;;0.65;;
21060;SDS011;10689;50.836;3.266;2022-08-19T10:54:12;0.47;;;0.47;;
21060;SDS011;10689;50.836;3.266;2022-08-19T10:56:38;1.02;;;0.60;;
21060;SDS011;10689;50.836;3.266;2022-08-19T10:59:17;0.93;;;0.73;;
21060;SDS011;10689;50.836;3.266;2022-08-19T11:01:46;1.05;;;0.60;;
21060;SDS011;10689;50.836;3.266;2022-08-19T11:04:12;1.45;;;0.65;;
21060;SDS011;10689;50.836;3.266;2022-08-19T11:06:39;0.98;;;0.85;;
21060;SDS011;10689;50.836;3.266;2022-08-19T11:09:08;0.70;;;0.70;;
21060;SDS011;10689;50.836;3.266;2022-08-19T11:11:36;0.75;;;0.60;;
21060;SDS011;10689;50.836;3.266;2022-08-19T11:14:09;0.95;;;0.70;;
21060;SDS011;10689;50.836;3.266;2022-08-19T11:16:35;0.63;;;0.50;;
21060;SDS011;10689;50.836;3.266;2022-08-19T11:19:04;3.95;;;0.70;;
21060;SDS011;10689;50.836;3.266;2022-08-19T11:21:33;0.85;;;0.60;;
21060;SDS011;10689;50.836;3.266;2022-08-19T11:24:01;0.90;;;0.50;;
21060;SDS011;10689;50.836;3.266;2022-08-19T11:26:31;0.82;;;0.80;;
21060;SDS011;10689;50.836;3.266;2022-08-19T11:28:58;1.38;;;1.17;;
21060;SDS011;10689;50.836;3.266;2022-08-19T11:31:26;1.95;;;0.60;;
21060;SDS011;10689;50.836;3.266;2022-08-19T11:33:55;1.42;;;0.90;;
21060;SDS011;10689;50.836;3.266;2022-08-19T11:36:27;0.90;;;0.73;;
21060;SDS011;10689;50.836;3.266;2022-08-19T11:38:53;1.65;;;1.10;;
21060;SDS011;10689;50.836;3.266;2022-08-19T11:41:20;2.15;;;0.85;;
21060;SDS011;10689;50.836;3.266;2022-08-19T11:43:51;1.95;;;0.50;;
21060;SDS011;10689;50.836;3.266;2022-08-19T11:46:19;1.40;;;0.90;;
21060;SDS011;10689;50.836;3.266;2022-08-19T11:48:45;1.60;;;0.65;;
21060;SDS011;10689;50.836;3.266;2022-08-19T11:51:12;1.92;;;0.77;;
21060;SDS011;10689;50.836;3.266;2022-08-19T11:53:41;1.33;;;0.63;;
21060;SDS011;10689;50.836;3.266;2022-08-19T11:56:07;1.48;;;1.15;;
21060;SDS011;10689;50.836;3.266;2022-08-19T11:58:34;1.30;;;0.88;;
21060;SDS011;10689;50.836;3.266;2022-08-19T12:01:01;0.70;;;0.60;;
21060;SDS011;10689;50.836;3.266;2022-08-19T12:03:30;1.08;;;0.80;;
21060;SDS011;10689;50.836;3.266;2022-08-19T12:05:55;2.70;;;0.80;;
21060;SDS011;10689;50.836;3.266;2022-08-19T12:08:21;1.50;;;0.82;;
21060;SDS011;10689;50.836;3.266;2022-08-19T12:10:47;1.45;;;1.00;;
21060;SDS011;10689;50.836;3.266;2022-08-19T12:13:13;0.98;;;0.60;;
21060;SDS011;10689;50.836;3.266;2022-08-19T12:15:43;1.90;;;1.02;;
21060;SDS011;10689;50.836;3.266;2022-08-19T12:18:10;1.48;;;1.10;;
21060;SDS011;10689;50.836;3.266;2022-08-19T12:20:39;1.45;;;0.98;;
21060;SDS011;10689;50.836;3.266;2022-08-19T12:23:07;1.83;;;1.13;;
21060;SDS011;10689;50.836;3.266;2022-08-19T12:25:34;0.90;;;0.85;;
21060;SDS011;10689;50.836;3.266;2022-08-19T12:28:01;1.17;;;0.68;;
21060;SDS011;10689;50.836;3.266;2022-08-19T12:30:28;0.73;;;0.73;;
21060;SDS011;10689;50.836;3.266;2022-08-19T12:32:54;0.68;;;0.68;;
21060;SDS011;10689;50.836;3.266;2022-08-19T12:35:19;0.75;;;0.75;;
21060;SDS011;10689;50.836;3.266;2022-08-19T12:37:46;2.97;;;1.30;;
21060;SDS011;10689;50.836;3.266;2022-08-19T12:40:13;1.58;;;1.00;;
21060;SDS011;10689;50.836;3.266;2022-08-19T12:42:40;3.80;;;1.63;;
21060;SDS011;10689;50.836;3.266;2022-08-19T12:45:12;1.67;;;1.08;;
21060;SDS011;10689;50.836;3.266;2022-08-19T12:47:39;1.55;;;1.10;;
21060;SDS011;10689;50.836;3.266;2022-08-19T12:50:05;3.53;;;1.35;;
21060;SDS011;10689;50.836;3.266;2022-08-19T12:52:33;1.42;;;1.10;;
21060;SDS011;10689;50.836;3.266;2022-08-19T12:55:01;2.08;;;1.20;;
21060;SDS011;10689;50.836;3.266;2022-08-19T12:57:29;1.60;;;1.20;;
21060;SDS011;10689;50.836;3.266;2022-08-19T12:59:58;2.63;;;1.33;;
21060;SDS011;10689;50.836;3.266;2022-08-19T13:02:32;2.40;;;1.35;;
21060;SDS011;10689;50.836;3.266;2022-08-19T13:04:59;2.72;;;1.20;;
21060;SDS011;10689;50.836;3.266;2022-08-19T13:07:25;3.05;;;1.20;;
21060;SDS011;10689;50.836;3.266;2022-08-19T13:09:52;2.55;;;1.45;;
21060;SDS011;10689;50.836;3.266;2022-08-19T13:12:18;2.20;;;1.30;;
21060;SDS011;10689;50.836;3.266;2022-08-19T13:14:45;2.47;;;1.10;;
21060;SDS011;10689;50.836;3.266;2022-08-19T13:17:14;2.13;;;1.52;;
21060;SDS011;10689;50.836;3.266;2022-08-19T13:19:40;1.77;;;0.98;;
21060;SDS011;10689;50.836;3.266;2022-08-19T13:22:06;3.50;;;1.70;;
21060;SDS011;10689;50.836;3.266;2022-08-19T13:24:32;3.05;;;1.20;;
21060;SDS011;10689;50.836;3.266;2022-08-19T13:26:59;3.03;;;0.90;;
21060;SDS011;10689;50.836;3.266;2022-08-19T13:29:25;1.13;;;0.70;;
21060;SDS011;10689;50.836;3.266;2022-08-19T13:32:09;1.88;;;0.90;;
21060;SDS011;10689;50.836;3.266;2022-08-19T13:34:54;2.30;;;0.80;;
21060;SDS011;10689;50.836;3.266;2022-08-19T13:37:19;1.33;;;0.77;;
21060;SDS011;10689;50.836;3.266;2022-08-19T13:40:05;2.10;;;0.85;;
21060;SDS011;10689;50.836;3.266;2022-08-19T13:42:31;1.40;;;0.57;;
21060;SDS011;10689;50.836;3.266;2022-08-19T13:44:57;1.02;;;0.75;;
21060;SDS011;10689;50.836;3.266;2022-08-19T13:47:23;1.50;;;1.00;;
21060;SDS011;10689;50.836;3.266;2022-08-19T13:49:49;1.52;;;0.90;;
21060;SDS011;10689;50.836;3.266;2022-08-19T13:52:15;1.33;;;0.65;;
21060;SDS011;10689;50.836;3.266;2022-08-19T13:54:40;1.35;;;0.63;;
21060;SDS011;10689;50.836;3.266;2022-08-19T13:57:06;0.55;;;0.55;;
21060;SDS011;10689;50.836;3.266;2022-08-19T13:59:32;2.67;;;0.93;;
21060;SDS011;10689;50.836;3.266;2022-08-19T14:01:58;0.93;;;0.70;;
21060;SDS011;10689;50.836;3.266;2022-08-19T14:04:25;0.80;;;0.60;;
21060;SDS011;10689;50.836;3.266;2022-08-19T14:06:51;1.38;;;0.60;;
21060;SDS011;10689;50.836;3.266;2022-08-19T14:09:16;0.77;;;0.55;;
21060;SDS011;10689;50.836;3.266;2022-08-19T14:11:42;1.08;;;0.63;;
21060;SDS011;10689;50.836;3.266;2022-08-19T14:14:10;0.57;;;0.57;;
21060;SDS011;10689;50.836;3.266;2022-08-19T14:16:36;0.85;;;0.57;;
21060;SDS011;10689;50.836;3.266;2022-08-19T14:19:04;0.63;;;0.50;;
21060;SDS011;10689;50.836;3.266;2022-08-19T14:21:29;1.00;;;0.50;;
21060;SDS011;10689;50.836;3.266;2022-08-19T14:23:55;1.33;;;0.50;;
21060;SDS011;10689;50.836;3.266;2022-08-19T14:26:21;1.65;;;0.90;;
21060;SDS011;10689;50.836;3.266;2022-08-19T14:28:47;0.77;;;0.60;;
21060;SDS011;10689;50.836;3.266;2022-08-19T14:31:15;0.95;;;0.52;;
21060;SDS011;10689;50.836;3.266;2022-08-19T14:33:44;1.27;;;0.50;;
21060;SDS011;10689;50.836;3.266;2022-08-19T14:36:11;0.98;;;0.60;;
21060;SDS011;10689;50.836;3.266;2022-08-19T14:38:37;1.52;;;0.68;;
21060;SDS011;10689;50.836;3.266;2022-08-19T14:43:44;0.95;;;0.60;;
21060;SDS011;10689;50.836;3.266;2022-08-19T14:46:16;1.10;;;0.60;;
21060;SDS011;10689;50.836;3.266;2022-08-19T14:48:45;1.63;;;0.75;;
21060;SDS011;10689;50.836;3.266;2022-08-19T14:51:12;1.70;;;0.63;;
21060;SDS011;10689;50.836;3.266;2022-08-19T14:53:39;0.70;;;0.70;;
21060;SDS011;10689;50.836;3.266;2022-08-19T14:56:08;1.50;;;0.88;;
21060;SDS011;10689;50.836;3.266;2022-08-19T14:58:36;1.20;;;1.10;;
21060;SDS011;10689;50.836;3.266;2022-08-19T15:01:01;0.77;;;0.60;;
21060;SDS011;10689;50.836;3.266;2022-08-19T15:03:28;1.33;;;0.73;;